sensor_id;sensor_type;location;lat;lon;timestamp;P1;durP1;ratioP1;P2;durP2;ratioP2
36137;SDS011;67787;50.074;21.904;2024-03-02T00:00:58;29.60;;;15.30;;
36137;SDS011;67787;50.074;21.904;2024-03-02T00:03:44;26.30;;;14.10;;
36137;SDS011;67787;50.074;21.904;2024-03-02T00:06:12;32.50;;;15.20;;
36137;SDS011;67787;50.074;21.904;2024-03-02T00:08:40;28.10;;;14.90;;
36137;SDS011;67787;50.074;21.904;2024-03-02T00:11:08;29.60;;;15.40;;
36137;SDS011;67787;50.074;21.904;2024-03-02T00:13:36;27.60;;;14.20;;
36137;SDS011;67787;50.074;21.904;2024-03-02T00:16:05;31.60;;;14.90;;
36137;SDS011;67787;50.074;21.904;2024-03-02T00:18:34;29.70;;;14.90;;
36137;SDS011;67787;50.074;21.904;2024-03-02T00:21:03;32.00;;;15.80;;
36137;SDS011;67787;50.074;21.904;2024-03-02T00:23:37;28.30;;;15.00;;
36137;SDS011;67787;50.074;21.904;2024-03-02T00:26:06;25.90;;;14.70;;
36137;SDS011;67787;50.074;21.904;2024-03-02T00:28:34;30.30;;;14.50;;
36137;SDS011;67787;50.074;21.904;2024-03-02T00:31:07;30.30;;;16.70;;
36137;SDS011;67787;50.074;21.904;2024-03-02T00:33:41;27.30;;;14.70;;
36137;SDS011;67787;50.074;21.904;2024-03-02T00:36:14;29.10;;;15.30;;
36137;SDS011;67787;50.074;21.904;2024-03-02T00:38:47;29.70;;;15.40;;
36137;SDS011;67787;50.074;21.904;2024-03-02T00:41:30;27.60;;;14.50;;
36137;SDS011;67787;50.074;21.904;2024-03-02T00:44:05;32.30;;;15.50;;
36137;SDS011;67787;50.074;21.904;2024-03-02T00:46:36;26.00;;;14.20;;
36137;SDS011;67787;50.074;21.904;2024-03-02T00:49:12;25.90;;;13.60;;
36137;SDS011;67787;50.074;21.904;2024-03-02T00:51:48;29.10;;;15.60;;
36137;SDS011;67787;50.074;21.904;2024-03-02T00:54:25;27.60;;;15.50;;
36137;SDS011;67787;50.074;21.904;2024-03-02T00:56:54;28.90;;;15.00;;
36137;SDS011;67787;50.074;21.904;2024-03-02T00:59:25;30.60;;;14.10;;
36137;SDS011;67787;50.074;21.904;2024-03-02T01:01:53;28.90;;;15.20;;
36137;SDS011;67787;50.074;21.904;2024-03-02T01:04:21;29.30;;;16.40;;
36137;SDS011;67787;50.074;21.904;2024-03-02T01:06:49;29.00;;;16.00;;
36137;SDS011;67787;50.074;21.904;2024-03-02T01:09:17;26.90;;;14.20;;
36137;SDS011;67787;50.074;21.904;2024-03-02T01:11:46;27.80;;;14.50;;
36137;SDS011;67787;50.074;21.904;2024-03-02T01:14:14;29.40;;;14.60;;
36137;SDS011;67787;50.074;21.904;2024-03-02T01:16:42;31.20;;;15.20;;
36137;SDS011;67787;50.074;21.904;2024-03-02T01:19:10;31.20;;;14.50;;
36137;SDS011;67787;50.074;21.904;2024-03-02T01:21:38;29.60;;;15.70;;
36137;SDS011;67787;50.074;21.904;2024-03-02T01:24:05;28.90;;;15.60;;
36137;SDS011;67787;50.074;21.904;2024-03-02T01:26:33;29.30;;;15.10;;
36137;SDS011;67787;50.074;21.904;2024-03-02T01:29:01;24.90;;;13.00;;
36137;SDS011;67787;50.074;21.904;2024-03-02T01:31:29;31.60;;;15.90;;
36137;SDS011;67787;50.074;21.904;2024-03-02T01:33:57;29.10;;;15.90;;
36137;SDS011;67787;50.074;21.904;2024-03-02T01:36:25;33.80;;;15.60;;
36137;SDS011;67787;50.074;21.904;2024-03-02T01:38:53;33.10;;;16.00;;
36137;SDS011;67787;50.074;21.904;2024-03-02T01:41:21;32.50;;;15.70;;
36137;SDS011;67787;50.074;21.904;2024-03-02T01:43:48;34.40;;;17.10;;
36137;SDS011;67787;50.074;21.904;2024-03-02T01:46:16;29.10;;;16.20;;
36137;SDS011;67787;50.074;21.904;2024-03-02T01:48:44;31.30;;;15.20;;
36137;SDS011;67787;50.074;21.904;2024-03-02T01:51:12;31.00;;;16.20;;
36137;SDS011;67787;50.074;21.904;2024-03-02T01:53:40;31.70;;;16.00;;
36137;SDS011;67787;50.074;21.904;2024-03-02T01:56:08;28.10;;;15.10;;
36137;SDS011;67787;50.074;21.904;2024-03-02T01:58:35;29.70;;;15.90;;
36137;SDS011;67787;50.074;21.904;2024-03-02T02:01:03;33.30;;;15.80;;
36137;SDS011;67787;50.074;21.904;2024-03-02T02:03:31;34.10;;;16.30;;
36137;SDS011;67787;50.074;21.904;2024-03-02T02:05:59;32.80;;;16.00;;
36137;SDS011;67787;50.074;21.904;2024-03-02T02:08:27;29.20;;;14.90;;
36137;SDS011;67787;50.074;21.904;2024-03-02T02:10:56;31.80;;;15.70;;
36137;SDS011;67787;50.074;21.904;2024-03-02T02:13:23;29.10;;;15.00;;
36137;SDS011;67787;50.074;21.904;2024-03-02T02:15:51;30.10;;;15.60;;
36137;SDS011;67787;50.074;21.904;2024-03-02T02:18:21;28.70;;;15.60;;
36137;SDS011;67787;50.074;21.904;2024-03-02T02:20:48;31.70;;;15.30;;
36137;SDS011;67787;50.074;21.904;2024-03-02T02:23:17;29.00;;;15.10;;
36137;SDS011;67787;50.074;21.904;2024-03-02T02:25:46;31.10;;;15.90;;
36137;SDS011;67787;50.074;21.904;2024-03-02T02:28:13;31.90;;;16.10;;
36137;SDS011;67787;50.074;21.904;2024-03-02T02:30:41;33.10;;;14.90;;
36137;SDS011;67787;50.074;21.904;2024-03-02T02:33:10;31.60;;;14.50;;
36137;SDS011;67787;50.074;21.904;2024-03-02T02:35:38;30.60;;;15.70;;
36137;SDS011;67787;50.074;21.904;2024-03-02T02:38:06;30.90;;;15.00;;
36137;SDS011;67787;50.074;21.904;2024-03-02T02:40:34;31.40;;;16.30;;
36137;SDS011;67787;50.074;21.904;2024-03-02T02:43:01;35.00;;;16.20;;
36137;SDS011;67787;50.074;21.904;2024-03-02T02:45:29;30.80;;;15.40;;
36137;SDS011;67787;50.074;21.904;2024-03-02T02:47:58;30.10;;;16.00;;
36137;SDS011;67787;50.074;21.904;2024-03-02T02:50:26;30.30;;;14.30;;
36137;SDS011;67787;50.074;21.904;2024-03-02T02:52:54;32.30;;;15.40;;
36137;SDS011;67787;50.074;21.904;2024-03-02T02:55:22;32.30;;;16.30;;
36137;SDS011;67787;50.074;21.904;2024-03-02T02:57:49;29.50;;;15.20;;
36137;SDS011;67787;50.074;21.904;2024-03-02T03:00:17;32.40;;;16.70;;
36137;SDS011;67787;50.074;21.904;2024-03-02T03:02:48;32.20;;;15.70;;
36137;SDS011;67787;50.074;21.904;2024-03-02T03:05:18;33.40;;;16.50;;
36137;SDS011;67787;50.074;21.904;2024-03-02T03:07:47;32.10;;;17.20;;
36137;SDS011;67787;50.074;21.904;2024-03-02T03:10:18;31.00;;;16.10;;
36137;SDS011;67787;50.074;21.904;2024-03-02T03:12:46;28.60;;;14.20;;
36137;SDS011;67787;50.074;21.904;2024-03-02T03:15:14;27.90;;;13.90;;
36137;SDS011;67787;50.074;21.904;2024-03-02T03:17:44;27.90;;;14.90;;
36137;SDS011;67787;50.074;21.904;2024-03-02T03:20:14;32.70;;;16.80;;
36137;SDS011;67787;50.074;21.904;2024-03-02T03:22:43;34.50;;;17.60;;
36137;SDS011;67787;50.074;21.904;2024-03-02T03:25:11;29.70;;;16.90;;
36137;SDS011;67787;50.074;21.904;2024-03-02T03:27:40;34.10;;;16.70;;
36137;SDS011;67787;50.074;21.904;2024-03-02T03:30:09;34.70;;;16.00;;
36137;SDS011;67787;50.074;21.904;2024-03-02T03:32:38;33.60;;;15.30;;
36137;SDS011;67787;50.074;21.904;2024-03-02T03:35:06;29.50;;;15.40;;
36137;SDS011;67787;50.074;21.904;2024-03-02T03:37:35;33.90;;;15.10;;
36137;SDS011;67787;50.074;21.904;2024-03-02T03:40:03;32.40;;;15.70;;
36137;SDS011;67787;50.074;21.904;2024-03-02T03:42:38;31.70;;;14.90;;
36137;SDS011;67787;50.074;21.904;2024-03-02T03:45:07;32.50;;;15.10;;
36137;SDS011;67787;50.074;21.904;2024-03-02T03:47:35;31.70;;;15.90;;
36137;SDS011;67787;50.074;21.904;2024-03-02T03:50:04;33.20;;;15.80;;
36137;SDS011;67787;50.074;21.904;2024-03-02T03:52:35;32.20;;;16.60;;
36137;SDS011;67787;50.074;21.904;2024-03-02T03:55:03;31.60;;;16.40;;
36137;SDS011;67787;50.074;21.904;2024-03-02T03:57:33;35.00;;;16.20;;
36137;SDS011;67787;50.074;21.904;2024-03-02T04:00:02;38.00;;;17.60;;
36137;SDS011;67787;50.074;21.904;2024-03-02T04:02:31;32.40;;;16.50;;
36137;SDS011;67787;50.074;21.904;2024-03-02T04:04:58;31.10;;;16.30;;
36137;SDS011;67787;50.074;21.904;2024-03-02T04:07:26;34.60;;;17.60;;
36137;SDS011;67787;50.074;21.904;2024-03-02T04:09:54;36.00;;;17.40;;
36137;SDS011;67787;50.074;21.904;2024-03-02T04:12:22;31.60;;;15.30;;
36137;SDS011;67787;50.074;21.904;2024-03-02T04:14:50;36.60;;;15.50;;
36137;SDS011;67787;50.074;21.904;2024-03-02T04:17:18;31.90;;;15.00;;
36137;SDS011;67787;50.074;21.904;2024-03-02T04:19:46;32.30;;;16.50;;
36137;SDS011;67787;50.074;21.904;2024-03-02T04:22:14;37.00;;;17.40;;
36137;SDS011;67787;50.074;21.904;2024-03-02T04:24:51;36.40;;;17.20;;
36137;SDS011;67787;50.074;21.904;2024-03-02T04:27:20;34.20;;;15.90;;
36137;SDS011;67787;50.074;21.904;2024-03-02T04:29:48;32.80;;;16.10;;
36137;SDS011;67787;50.074;21.904;2024-03-02T04:32:16;34.40;;;17.00;;
36137;SDS011;67787;50.074;21.904;2024-03-02T04:34:44;32.70;;;17.00;;
36137;SDS011;67787;50.074;21.904;2024-03-02T04:37:11;33.60;;;17.40;;
36137;SDS011;67787;50.074;21.904;2024-03-02T04:39:40;34.70;;;16.60;;
36137;SDS011;67787;50.074;21.904;2024-03-02T04:42:08;36.50;;;16.70;;
36137;SDS011;67787;50.074;21.904;2024-03-02T04:44:36;37.20;;;17.00;;
36137;SDS011;67787;50.074;21.904;2024-03-02T04:47:05;34.10;;;16.70;;
36137;SDS011;67787;50.074;21.904;2024-03-02T04:49:33;35.90;;;15.90;;
36137;SDS011;67787;50.074;21.904;2024-03-02T04:52:01;36.70;;;16.30;;
36137;SDS011;67787;50.074;21.904;2024-03-02T04:54:29;33.30;;;15.60;;
36137;SDS011;67787;50.074;21.904;2024-03-02T04:56:57;36.60;;;17.30;;
36137;SDS011;67787;50.074;21.904;2024-03-02T04:59:26;37.30;;;17.10;;
36137;SDS011;67787;50.074;21.904;2024-03-02T05:01:54;37.20;;;17.00;;
36137;SDS011;67787;50.074;21.904;2024-03-02T05:04:22;34.40;;;17.00;;
36137;SDS011;67787;50.074;21.904;2024-03-02T05:06:49;37.90;;;16.40;;
36137;SDS011;67787;50.074;21.904;2024-03-02T05:09:20;40.70;;;17.50;;
36137;SDS011;67787;50.074;21.904;2024-03-02T05:11:49;35.20;;;17.00;;
36137;SDS011;67787;50.074;21.904;2024-03-02T05:14:33;37.60;;;16.00;;
36137;SDS011;67787;50.074;21.904;2024-03-02T05:17:00;39.10;;;17.90;;
36137;SDS011;67787;50.074;21.904;2024-03-02T05:19:28;34.60;;;15.60;;
36137;SDS011;67787;50.074;21.904;2024-03-02T05:21:56;32.40;;;15.30;;
36137;SDS011;67787;50.074;21.904;2024-03-02T05:24:24;31.10;;;15.80;;
36137;SDS011;67787;50.074;21.904;2024-03-02T05:26:54;37.50;;;16.90;;
36137;SDS011;67787;50.074;21.904;2024-03-02T05:29:22;32.70;;;15.20;;
36137;SDS011;67787;50.074;21.904;2024-03-02T05:31:50;32.30;;;16.80;;
36137;SDS011;67787;50.074;21.904;2024-03-02T05:34:18;38.00;;;16.90;;
36137;SDS011;67787;50.074;21.904;2024-03-02T05:36:46;34.20;;;16.40;;
36137;SDS011;67787;50.074;21.904;2024-03-02T05:39:14;33.90;;;16.60;;
36137;SDS011;67787;50.074;21.904;2024-03-02T05:41:42;37.60;;;17.50;;
36137;SDS011;67787;50.074;21.904;2024-03-02T05:44:10;37.00;;;15.40;;
36137;SDS011;67787;50.074;21.904;2024-03-02T05:46:37;35.90;;;15.80;;
36137;SDS011;67787;50.074;21.904;2024-03-02T05:49:07;34.40;;;15.10;;
36137;SDS011;67787;50.074;21.904;2024-03-02T05:51:35;40.50;;;17.80;;
36137;SDS011;67787;50.074;21.904;2024-03-02T05:54:03;32.00;;;16.00;;
36137;SDS011;67787;50.074;21.904;2024-03-02T05:56:31;38.10;;;16.60;;
36137;SDS011;67787;50.074;21.904;2024-03-02T05:58:59;35.60;;;16.30;;
36137;SDS011;67787;50.074;21.904;2024-03-02T06:01:43;39.20;;;16.90;;
36137;SDS011;67787;50.074;21.904;2024-03-02T06:04:14;34.60;;;15.40;;
36137;SDS011;67787;50.074;21.904;2024-03-02T06:06:42;31.10;;;15.00;;
36137;SDS011;67787;50.074;21.904;2024-03-02T06:09:10;32.20;;;15.90;;
36137;SDS011;67787;50.074;21.904;2024-03-02T06:11:41;31.90;;;15.90;;
36137;SDS011;67787;50.074;21.904;2024-03-02T06:14:09;33.50;;;16.40;;
36137;SDS011;67787;50.074;21.904;2024-03-02T06:16:37;34.80;;;15.80;;
36137;SDS011;67787;50.074;21.904;2024-03-02T06:19:05;36.70;;;17.10;;
36137;SDS011;67787;50.074;21.904;2024-03-02T06:21:33;35.80;;;17.20;;
36137;SDS011;67787;50.074;21.904;2024-03-02T06:24:01;36.80;;;16.50;;
36137;SDS011;67787;50.074;21.904;2024-03-02T06:26:28;36.80;;;18.30;;
36137;SDS011;67787;50.074;21.904;2024-03-02T06:28:57;39.70;;;17.10;;
36137;SDS011;67787;50.074;21.904;2024-03-02T06:31:25;38.70;;;16.80;;
36137;SDS011;67787;50.074;21.904;2024-03-02T06:33:53;37.20;;;17.10;;
36137;SDS011;67787;50.074;21.904;2024-03-02T06:36:21;38.10;;;17.50;;
36137;SDS011;67787;50.074;21.904;2024-03-02T06:38:49;36.60;;;16.60;;
36137;SDS011;67787;50.074;21.904;2024-03-02T06:41:17;37.90;;;15.90;;
36137;SDS011;67787;50.074;21.904;2024-03-02T06:43:45;35.00;;;16.90;;
36137;SDS011;67787;50.074;21.904;2024-03-02T06:46:12;34.30;;;16.60;;
36137;SDS011;67787;50.074;21.904;2024-03-02T06:48:42;34.90;;;16.80;;
36137;SDS011;67787;50.074;21.904;2024-03-02T06:51:10;34.20;;;16.30;;
36137;SDS011;67787;50.074;21.904;2024-03-02T06:53:38;39.70;;;18.10;;
36137;SDS011;67787;50.074;21.904;2024-03-02T06:56:06;37.20;;;16.20;;
36137;SDS011;67787;50.074;21.904;2024-03-02T06:58:43;33.50;;;16.50;;
36137;SDS011;67787;50.074;21.904;2024-03-02T07:01:10;37.30;;;17.10;;
36137;SDS011;67787;50.074;21.904;2024-03-02T07:03:38;30.90;;;15.50;;
36137;SDS011;67787;50.074;21.904;2024-03-02T07:06:07;34.20;;;15.60;;
36137;SDS011;67787;50.074;21.904;2024-03-02T07:08:34;36.40;;;16.60;;
36137;SDS011;67787;50.074;21.904;2024-03-02T07:11:02;34.40;;;16.70;;
36137;SDS011;67787;50.074;21.904;2024-03-02T07:13:30;33.40;;;16.50;;
36137;SDS011;67787;50.074;21.904;2024-03-02T07:15:58;39.30;;;16.90;;
36137;SDS011;67787;50.074;21.904;2024-03-02T07:18:38;34.60;;;16.30;;
36137;SDS011;67787;50.074;21.904;2024-03-02T07:21:09;37.00;;;16.90;;
36137;SDS011;67787;50.074;21.904;2024-03-02T07:23:37;37.70;;;16.40;;
36137;SDS011;67787;50.074;21.904;2024-03-02T07:26:05;35.80;;;17.00;;
36137;SDS011;67787;50.074;21.904;2024-03-02T07:28:36;37.60;;;17.00;;
36137;SDS011;67787;50.074;21.904;2024-03-02T07:31:04;40.90;;;17.40;;
36137;SDS011;67787;50.074;21.904;2024-03-02T07:33:33;34.70;;;16.30;;
36137;SDS011;67787;50.074;21.904;2024-03-02T07:36:01;35.20;;;17.70;;
36137;SDS011;67787;50.074;21.904;2024-03-02T07:38:31;38.00;;;17.90;;
36137;SDS011;67787;50.074;21.904;2024-03-02T07:41:02;31.40;;;15.20;;
36137;SDS011;67787;50.074;21.904;2024-03-02T07:43:32;37.80;;;16.70;;
36137;SDS011;67787;50.074;21.904;2024-03-02T07:46:01;38.40;;;16.00;;
36137;SDS011;67787;50.074;21.904;2024-03-02T07:48:31;34.10;;;16.60;;
36137;SDS011;67787;50.074;21.904;2024-03-02T07:50:59;29.80;;;16.60;;
36137;SDS011;67787;50.074;21.904;2024-03-02T07:53:26;40.30;;;17.40;;
36137;SDS011;67787;50.074;21.904;2024-03-02T07:55:58;41.00;;;17.10;;
36137;SDS011;67787;50.074;21.904;2024-03-02T07:58:30;39.70;;;18.50;;
36137;SDS011;67787;50.074;21.904;2024-03-02T08:00:58;37.30;;;17.90;;
36137;SDS011;67787;50.074;21.904;2024-03-02T08:03:29;40.40;;;17.80;;
36137;SDS011;67787;50.074;21.904;2024-03-02T08:05:57;35.60;;;17.20;;
36137;SDS011;67787;50.074;21.904;2024-03-02T08:08:25;35.60;;;16.20;;
36137;SDS011;67787;50.074;21.904;2024-03-02T08:10:53;34.90;;;16.90;;
36137;SDS011;67787;50.074;21.904;2024-03-02T08:13:20;40.40;;;19.60;;
36137;SDS011;67787;50.074;21.904;2024-03-02T08:15:48;36.30;;;17.60;;
36137;SDS011;67787;50.074;21.904;2024-03-02T08:18:16;38.10;;;17.20;;
36137;SDS011;67787;50.074;21.904;2024-03-02T08:20:44;36.30;;;16.70;;
36137;SDS011;67787;50.074;21.904;2024-03-02T08:23:12;36.40;;;17.70;;
36137;SDS011;67787;50.074;21.904;2024-03-02T08:25:40;34.30;;;17.40;;
36137;SDS011;67787;50.074;21.904;2024-03-02T08:28:09;39.30;;;17.60;;
36137;SDS011;67787;50.074;21.904;2024-03-02T08:30:37;38.10;;;17.90;;
36137;SDS011;67787;50.074;21.904;2024-03-02T08:33:04;41.70;;;18.50;;
36137;SDS011;67787;50.074;21.904;2024-03-02T08:35:33;34.10;;;17.00;;
36137;SDS011;67787;50.074;21.904;2024-03-02T08:38:03;41.30;;;19.60;;
36137;SDS011;67787;50.074;21.904;2024-03-02T08:40:32;42.80;;;17.50;;
36137;SDS011;67787;50.074;21.904;2024-03-02T08:43:00;35.50;;;16.90;;
36137;SDS011;67787;50.074;21.904;2024-03-02T08:45:28;36.00;;;17.80;;
36137;SDS011;67787;50.074;21.904;2024-03-02T08:47:56;45.20;;;19.20;;
36137;SDS011;67787;50.074;21.904;2024-03-02T08:50:24;39.20;;;19.10;;
36137;SDS011;67787;50.074;21.904;2024-03-02T08:52:51;37.10;;;16.90;;
36137;SDS011;67787;50.074;21.904;2024-03-02T08:55:19;35.30;;;17.70;;
36137;SDS011;67787;50.074;21.904;2024-03-02T08:57:47;38.40;;;19.80;;
36137;SDS011;67787;50.074;21.904;2024-03-02T09:00:18;39.30;;;17.90;;
36137;SDS011;67787;50.074;21.904;2024-03-02T09:02:46;33.10;;;17.10;;
36137;SDS011;67787;50.074;21.904;2024-03-02T09:05:15;35.10;;;16.70;;
36137;SDS011;67787;50.074;21.904;2024-03-02T09:07:43;36.50;;;17.60;;
36137;SDS011;67787;50.074;21.904;2024-03-02T09:10:11;34.60;;;16.20;;
36137;SDS011;67787;50.074;21.904;2024-03-02T09:12:39;35.70;;;17.80;;
36137;SDS011;67787;50.074;21.904;2024-03-02T09:15:08;40.20;;;19.50;;
36137;SDS011;67787;50.074;21.904;2024-03-02T09:17:36;33.90;;;17.10;;
36137;SDS011;67787;50.074;21.904;2024-03-02T09:20:04;35.50;;;17.40;;
36137;SDS011;67787;50.074;21.904;2024-03-02T09:22:33;35.50;;;18.00;;
36137;SDS011;67787;50.074;21.904;2024-03-02T09:25:00;41.60;;;18.50;;
36137;SDS011;67787;50.074;21.904;2024-03-02T09:27:28;35.30;;;17.90;;
36137;SDS011;67787;50.074;21.904;2024-03-02T09:29:56;41.40;;;18.50;;
36137;SDS011;67787;50.074;21.904;2024-03-02T09:32:24;38.20;;;17.90;;
36137;SDS011;67787;50.074;21.904;2024-03-02T09:34:52;40.90;;;19.20;;
36137;SDS011;67787;50.074;21.904;2024-03-02T09:37:21;36.90;;;17.40;;
36137;SDS011;67787;50.074;21.904;2024-03-02T09:39:48;37.20;;;16.70;;
36137;SDS011;67787;50.074;21.904;2024-03-02T09:42:16;30.50;;;15.90;;
36137;SDS011;67787;50.074;21.904;2024-03-02T09:44:44;40.10;;;18.70;;
36137;SDS011;67787;50.074;21.904;2024-03-02T09:47:13;41.60;;;18.70;;
36137;SDS011;67787;50.074;21.904;2024-03-02T09:49:41;40.10;;;17.30;;
36137;SDS011;67787;50.074;21.904;2024-03-02T09:52:10;36.00;;;17.30;;
36137;SDS011;67787;50.074;21.904;2024-03-02T09:54:38;35.40;;;18.00;;
36137;SDS011;67787;50.074;21.904;2024-03-02T09:57:06;37.10;;;18.00;;
36137;SDS011;67787;50.074;21.904;2024-03-02T09:59:34;40.80;;;20.50;;
36137;SDS011;67787;50.074;21.904;2024-03-02T10:02:02;39.80;;;19.00;;
36137;SDS011;67787;50.074;21.904;2024-03-02T10:04:31;37.80;;;18.40;;
36137;SDS011;67787;50.074;21.904;2024-03-02T10:09:45;40.20;;;18.40;;
36137;SDS011;67787;50.074;21.904;2024-03-02T10:12:15;36.80;;;18.30;;
36137;SDS011;67787;50.074;21.904;2024-03-02T10:14:44;42.30;;;20.10;;
36137;SDS011;67787;50.074;21.904;2024-03-02T10:17:13;41.90;;;19.80;;
36137;SDS011;67787;50.074;21.904;2024-03-02T10:19:43;38.40;;;17.80;;
36137;SDS011;67787;50.074;21.904;2024-03-02T10:22:11;36.70;;;20.00;;
36137;SDS011;67787;50.074;21.904;2024-03-02T10:24:43;40.40;;;18.70;;
36137;SDS011;67787;50.074;21.904;2024-03-02T10:27:16;37.50;;;18.40;;
36137;SDS011;67787;50.074;21.904;2024-03-02T10:29:46;40.20;;;19.90;;
36137;SDS011;67787;50.074;21.904;2024-03-02T10:32:15;38.20;;;18.30;;
36137;SDS011;67787;50.074;21.904;2024-03-02T10:34:46;42.80;;;19.10;;
36137;SDS011;67787;50.074;21.904;2024-03-02T10:37:17;41.40;;;21.60;;
36137;SDS011;67787;50.074;21.904;2024-03-02T10:39:46;38.00;;;19.40;;
36137;SDS011;67787;50.074;21.904;2024-03-02T10:42:15;43.30;;;20.50;;
36137;SDS011;67787;50.074;21.904;2024-03-02T10:44:44;39.30;;;19.20;;
36137;SDS011;67787;50.074;21.904;2024-03-02T10:47:13;40.70;;;19.00;;
36137;SDS011;67787;50.074;21.904;2024-03-02T10:49:42;35.30;;;18.40;;
36137;SDS011;67787;50.074;21.904;2024-03-02T10:52:13;47.30;;;21.50;;
36137;SDS011;67787;50.074;21.904;2024-03-02T10:54:41;44.50;;;21.90;;
36137;SDS011;67787;50.074;21.904;2024-03-02T10:57:10;33.70;;;18.90;;
36137;SDS011;67787;50.074;21.904;2024-03-02T10:59:56;45.30;;;20.90;;
36137;SDS011;67787;50.074;21.904;2024-03-02T11:03:46;43.10;;;23.00;;
36137;SDS011;67787;50.074;21.904;2024-03-02T11:06:15;40.20;;;21.10;;
36137;SDS011;67787;50.074;21.904;2024-03-02T11:08:44;39.30;;;18.50;;
36137;SDS011;67787;50.074;21.904;2024-03-02T11:11:15;38.10;;;21.10;;
36137;SDS011;67787;50.074;21.904;2024-03-02T11:13:49;37.20;;;18.50;;
36137;SDS011;67787;50.074;21.904;2024-03-02T11:16:38;40.30;;;21.00;;
36137;SDS011;67787;50.074;21.904;2024-03-02T11:19:12;39.60;;;20.60;;
36137;SDS011;67787;50.074;21.904;2024-03-02T11:21:44;40.30;;;20.80;;
36137;SDS011;67787;50.074;21.904;2024-03-02T11:26:54;38.60;;;20.00;;
36137;SDS011;67787;50.074;21.904;2024-03-02T11:32:04;36.00;;;18.50;;
36137;SDS011;67787;50.074;21.904;2024-03-02T11:34:43;40.70;;;22.10;;
36137;SDS011;67787;50.074;21.904;2024-03-02T11:37:14;43.20;;;22.20;;
36137;SDS011;67787;50.074;21.904;2024-03-02T11:39:43;54.70;;;25.00;;
36137;SDS011;67787;50.074;21.904;2024-03-02T11:42:13;41.30;;;20.60;;
36137;SDS011;67787;50.074;21.904;2024-03-02T11:44:43;40.40;;;20.50;;
36137;SDS011;67787;50.074;21.904;2024-03-02T11:47:14;45.80;;;23.10;;
36137;SDS011;67787;50.074;21.904;2024-03-02T11:49:44;46.40;;;22.20;;
36137;SDS011;67787;50.074;21.904;2024-03-02T11:52:13;44.40;;;22.30;;
36137;SDS011;67787;50.074;21.904;2024-03-02T11:54:43;47.90;;;22.90;;
36137;SDS011;67787;50.074;21.904;2024-03-02T11:57:15;48.40;;;24.30;;
36137;SDS011;67787;50.074;21.904;2024-03-02T11:59:45;43.80;;;21.50;;
36137;SDS011;67787;50.074;21.904;2024-03-02T12:02:16;49.60;;;23.30;;
36137;SDS011;67787;50.074;21.904;2024-03-02T12:04:46;46.60;;;22.30;;
36137;SDS011;67787;50.074;21.904;2024-03-02T12:07:19;44.50;;;22.00;;
36137;SDS011;67787;50.074;21.904;2024-03-02T12:09:49;44.40;;;22.00;;
36137;SDS011;67787;50.074;21.904;2024-03-02T12:12:28;43.50;;;22.00;;
36137;SDS011;67787;50.074;21.904;2024-03-02T12:14:56;46.40;;;23.00;;
36137;SDS011;67787;50.074;21.904;2024-03-02T12:17:24;48.60;;;23.40;;
36137;SDS011;67787;50.074;21.904;2024-03-02T12:19:51;43.00;;;21.10;;
36137;SDS011;67787;50.074;21.904;2024-03-02T12:22:21;45.40;;;22.70;;
36137;SDS011;67787;50.074;21.904;2024-03-02T12:24:49;47.90;;;24.10;;
36137;SDS011;67787;50.074;21.904;2024-03-02T12:27:17;47.80;;;23.90;;
36137;SDS011;67787;50.074;21.904;2024-03-02T12:29:46;48.80;;;24.80;;
36137;SDS011;67787;50.074;21.904;2024-03-02T12:32:14;48.50;;;24.50;;
36137;SDS011;67787;50.074;21.904;2024-03-02T12:34:42;46.90;;;23.10;;
36137;SDS011;67787;50.074;21.904;2024-03-02T12:37:12;48.40;;;25.00;;
36137;SDS011;67787;50.074;21.904;2024-03-02T12:39:44;48.00;;;24.40;;
36137;SDS011;67787;50.074;21.904;2024-03-02T12:42:12;50.60;;;25.30;;
36137;SDS011;67787;50.074;21.904;2024-03-02T12:44:40;47.60;;;24.90;;
36137;SDS011;67787;50.074;21.904;2024-03-02T12:47:08;50.20;;;25.00;;
36137;SDS011;67787;50.074;21.904;2024-03-02T12:49:36;50.90;;;24.50;;
36137;SDS011;67787;50.074;21.904;2024-03-02T12:52:04;44.40;;;22.40;;
36137;SDS011;67787;50.074;21.904;2024-03-02T12:54:32;49.70;;;23.60;;
36137;SDS011;67787;50.074;21.904;2024-03-02T12:57:01;44.20;;;23.20;;
36137;SDS011;67787;50.074;21.904;2024-03-02T12:59:29;42.90;;;22.00;;
36137;SDS011;67787;50.074;21.904;2024-03-02T13:01:59;44.50;;;22.40;;
36137;SDS011;67787;50.074;21.904;2024-03-02T13:04:28;46.60;;;21.60;;
36137;SDS011;67787;50.074;21.904;2024-03-02T13:06:57;46.80;;;23.40;;
36137;SDS011;67787;50.074;21.904;2024-03-02T13:09:26;48.30;;;24.00;;
36137;SDS011;67787;50.074;21.904;2024-03-02T13:11:54;38.40;;;21.00;;
36137;SDS011;67787;50.074;21.904;2024-03-02T13:14:22;48.30;;;23.20;;
36137;SDS011;67787;50.074;21.904;2024-03-02T13:16:52;48.50;;;24.40;;
36137;SDS011;67787;50.074;21.904;2024-03-02T13:19:20;42.90;;;21.60;;
36137;SDS011;67787;50.074;21.904;2024-03-02T13:21:48;46.60;;;23.00;;
36137;SDS011;67787;50.074;21.904;2024-03-02T13:24:18;45.90;;;23.70;;
36137;SDS011;67787;50.074;21.904;2024-03-02T13:26:47;46.60;;;26.10;;
36137;SDS011;67787;50.074;21.904;2024-03-02T13:29:15;47.30;;;23.00;;
36137;SDS011;67787;50.074;21.904;2024-03-02T13:31:43;46.20;;;22.90;;
36137;SDS011;67787;50.074;21.904;2024-03-02T13:34:11;45.50;;;23.90;;
36137;SDS011;67787;50.074;21.904;2024-03-02T13:36:39;46.00;;;23.10;;
36137;SDS011;67787;50.074;21.904;2024-03-02T13:39:08;43.00;;;23.00;;
36137;SDS011;67787;50.074;21.904;2024-03-02T13:41:38;46.90;;;25.50;;
36137;SDS011;67787;50.074;21.904;2024-03-02T13:44:06;51.20;;;25.10;;
36137;SDS011;67787;50.074;21.904;2024-03-02T13:46:34;45.40;;;23.80;;
36137;SDS011;67787;50.074;21.904;2024-03-02T13:49:02;47.70;;;24.60;;
36137;SDS011;67787;50.074;21.904;2024-03-02T13:51:30;51.70;;;26.80;;
36137;SDS011;67787;50.074;21.904;2024-03-02T13:54:00;49.60;;;25.20;;
36137;SDS011;67787;50.074;21.904;2024-03-02T13:56:30;49.40;;;24.80;;
36137;SDS011;67787;50.074;21.904;2024-03-02T13:58:59;48.80;;;24.40;;
36137;SDS011;67787;50.074;21.904;2024-03-02T14:01:27;50.10;;;24.20;;
36137;SDS011;67787;50.074;21.904;2024-03-02T14:03:55;49.50;;;24.90;;
36137;SDS011;67787;50.074;21.904;2024-03-02T14:06:23;56.20;;;25.30;;
36137;SDS011;67787;50.074;21.904;2024-03-02T14:08:53;44.90;;;22.20;;
36137;SDS011;67787;50.074;21.904;2024-03-02T14:11:21;45.80;;;23.00;;
36137;SDS011;67787;50.074;21.904;2024-03-02T14:13:49;44.00;;;22.50;;
36137;SDS011;67787;50.074;21.904;2024-03-02T14:16:22;50.20;;;24.20;;
36137;SDS011;67787;50.074;21.904;2024-03-02T14:18:49;41.80;;;22.30;;
36137;SDS011;67787;50.074;21.904;2024-03-02T14:21:18;46.20;;;23.10;;
36137;SDS011;67787;50.074;21.904;2024-03-02T14:23:46;43.00;;;23.90;;
36137;SDS011;67787;50.074;21.904;2024-03-02T14:26:14;43.00;;;21.60;;
36137;SDS011;67787;50.074;21.904;2024-03-02T14:28:41;38.70;;;19.40;;